createdAt,value
2023-02-19T00:01:10.419Z,5.85
2023-02-19T00:03:38.021Z,5.50
2023-02-19T00:06:10.775Z,5.35
2023-02-19T00:08:38.685Z,5.10
2023-02-19T00:11:11.792Z,5.57
2023-02-19T00:13:40.566Z,5.45
2023-02-19T00:16:15.513Z,5.60
2023-02-19T00:18:43.422Z,5.63
2023-02-19T00:21:10.631Z,5.10
2023-02-19T00:23:37.290Z,5.38
2023-02-19T00:26:18.213Z,4.85
2023-02-19T00:28:47.057Z,4.80
2023-02-19T00:31:19.424Z,5.60
2023-02-19T00:33:47.920Z,5.63
2023-02-19T00:36:15.266Z,5.03
2023-02-19T00:38:43.321Z,4.90
2023-02-19T00:41:19.589Z,5.25
2023-02-19T00:43:54.691Z,4.40
2023-02-19T00:46:30.071Z,4.80
2023-02-19T00:48:57.284Z,4.60
2023-02-19T00:51:26.242Z,4.50
2023-02-19T00:53:53.542Z,4.68
2023-02-19T00:56:20.362Z,5.30
2023-02-19T00:58:47.723Z,5.25
2023-02-19T01:01:15.173Z,4.97
2023-02-19T01:03:42.016Z,5.07
2023-02-19T01:06:10.364Z,5.25
2023-02-19T01:08:37.628Z,5.28
2023-02-19T01:11:05.967Z,5.57
2023-02-19T01:13:33.544Z,5.55
2023-02-19T01:16:18.034Z,5.38
2023-02-19T01:18:45.910Z,5.80
2023-02-19T01:21:14.802Z,6.03
2023-02-19T01:23:41.553Z,5.93
2023-02-19T01:26:12.414Z,5.25
2023-02-19T01:28:39.253Z,5.93
2023-02-19T01:31:08.987Z,6.18
2023-02-19T01:33:35.661Z,6.22
2023-02-19T01:36:07.042Z,5.63
2023-02-19T01:38:33.785Z,5.55
2023-02-19T01:41:03.340Z,5.93
2023-02-19T01:43:32.867Z,6.25
2023-02-19T01:45:59.576Z,5.78
2023-02-19T01:48:31.895Z,5.80
2023-02-19T01:51:05.657Z,5.38
2023-02-19T01:53:37.514Z,5.13
2023-02-19T01:56:05.413Z,4.50
2023-02-19T01:58:34.285Z,4.32
2023-02-19T02:01:04.607Z,4.55
2023-02-19T02:03:31.858Z,5.07
2023-02-19T02:06:11.924Z,4.88
2023-02-19T02:08:57.629Z,4.53
2023-02-19T02:11:24.553Z,5.03
2023-02-19T02:13:51.723Z,4.43
2023-02-19T02:16:34.091Z,4.70
2023-02-19T02:19:09.745Z,4.35
2023-02-19T02:22:01.206Z,4.97
2023-02-19T02:24:47.702Z,5.10
2023-02-19T02:27:17.385Z,5.30
2023-02-19T02:30:05.838Z,6.25
2023-02-19T02:32:53.715Z,5.97
2023-02-19T02:35:30.412Z,5.68
2023-02-19T02:38:02.720Z,6.05
2023-02-19T02:40:30.513Z,5.97
2023-02-19T02:42:58.582Z,6.32
2023-02-19T02:45:35.388Z,5.43
2023-02-19T02:48:22.641Z,5.93
2023-02-19T02:50:55.302Z,5.70
2023-02-19T02:53:47.916Z,5.70
2023-02-19T02:56:16.653Z,5.60
2023-02-19T02:58:44.655Z,5.82
2023-02-19T03:01:36.892Z,5.70
2023-02-19T03:04:14.000Z,5.85
2023-02-19T03:06:42.589Z,5.40
2023-02-19T03:09:13.290Z,5.32
2023-02-19T03:12:04.071Z,4.90
2023-02-19T03:15:00.622Z,5.00
2023-02-19T03:17:51.721Z,5.20
2023-02-19T03:20:22.921Z,5.28
2023-02-19T03:22:51.759Z,4.85
2023-02-19T03:25:43.607Z,5.05
2023-02-19T03:28:16.158Z,5.40
2023-02-19T03:30:52.308Z,5.35
2023-02-19T03:33:24.923Z,4.93
2023-02-19T03:35:57.641Z,4.70
2023-02-19T03:38:36.667Z,4.93
2023-02-19T03:41:06.510Z,4.50
2023-02-19T03:43:54.007Z,4.40
2023-02-19T03:46:35.402Z,4.22
2023-02-19T03:49:13.439Z,4.00
2023-02-19T03:52:16.955Z,4.22
2023-02-19T03:54:57.744Z,4.18
2023-02-19T03:57:37.127Z,4.57
2023-02-19T04:00:33.595Z,4.63
2023-02-19T04:03:15.732Z,3.80
2023-02-19T04:05:47.596Z,3.60
2023-02-19T04:08:18.743Z,3.60
2023-02-19T04:10:52.641Z,3.30
2023-02-19T04:13:27.680Z,3.47
2023-02-19T04:15:58.104Z,3.53
2023-02-19T04:18:29.245Z,3.42
2023-02-19T04:20:58.061Z,3.13
2023-02-19T04:23:28.118Z,3.35
2023-02-19T04:26:00.642Z,2.90
2023-02-19T04:28:28.821Z,2.80
2023-02-19T04:30:55.487Z,3.20
2023-02-19T04:33:22.025Z,3.42
2023-02-19T04:35:48.474Z,3.22
2023-02-19T04:38:15.698Z,3.00
2023-02-19T04:40:42.267Z,3.50
2023-02-19T04:43:08.728Z,3.03
2023-02-19T04:45:37.794Z,3.45
2023-02-19T04:48:04.999Z,3.70
2023-02-19T04:50:31.907Z,3.28
2023-02-19T04:52:58.398Z,3.47
2023-02-19T04:55:25.061Z,3.03
2023-02-19T04:57:51.517Z,3.20
2023-02-19T05:00:18.083Z,2.97
2023-02-19T05:02:44.619Z,3.47
2023-02-19T05:05:11.100Z,2.88
2023-02-19T05:07:37.588Z,3.40
2023-02-19T05:10:04.261Z,3.72
2023-02-19T05:12:31.163Z,3.83
2023-02-19T05:14:57.781Z,4.00
2023-02-19T05:17:24.248Z,3.83
2023-02-19T05:19:50.713Z,4.13
2023-02-19T05:22:17.359Z,3.92
2023-02-19T05:24:43.811Z,4.35
2023-02-19T05:27:10.335Z,4.80
2023-02-19T05:29:36.873Z,4.68
2023-02-19T05:32:03.454Z,5.05
2023-02-19T05:34:30.054Z,4.85
2023-02-19T05:36:56.501Z,5.20
2023-02-19T05:39:23.020Z,5.28
2023-02-19T05:41:49.488Z,5.20
2023-02-19T05:44:16.024Z,4.70
2023-02-19T05:46:42.540Z,5.13
2023-02-19T05:49:09.003Z,4.53
2023-02-19T05:51:35.545Z,4.75
2023-02-19T05:54:02.044Z,4.47
2023-02-19T05:56:32.800Z,4.60
2023-02-19T05:59:01.558Z,4.72
2023-02-19T06:01:29.144Z,4.10
2023-02-19T06:03:57.645Z,4.20
2023-02-19T06:06:25.491Z,4.50
2023-02-19T06:08:52.070Z,4.18
2023-02-19T06:11:19.082Z,4.55
2023-02-19T06:13:46.356Z,4.70
2023-02-19T06:16:13.047Z,4.80
2023-02-19T06:18:42.460Z,5.07
2023-02-19T06:21:11.424Z,4.90
2023-02-19T06:23:39.032Z,5.05
2023-02-19T06:26:20.854Z,5.13
2023-02-19T06:28:48.763Z,5.50
2023-02-19T06:31:16.121Z,5.50
2023-02-19T06:33:42.996Z,5.93
2023-02-19T06:36:15.304Z,5.82
2023-02-19T06:38:41.954Z,5.15
2023-02-19T06:41:09.545Z,5.50
2023-02-19T06:43:36.651Z,5.25
2023-02-19T06:46:05.817Z,5.43
2023-02-19T06:48:33.238Z,5.50
2023-02-19T06:50:59.709Z,5.13
2023-02-19T06:53:26.346Z,5.00
2023-02-19T06:56:04.984Z,5.70
2023-02-19T06:58:32.752Z,5.72
2023-02-19T07:00:59.853Z,5.35
2023-02-19T07:03:26.515Z,6.38
2023-02-19T07:05:53.439Z,5.47
2023-02-19T07:08:19.986Z,5.53
2023-02-19T07:10:54.285Z,5.22
2023-02-19T07:13:20.796Z,5.38
2023-02-19T07:15:47.288Z,5.63
2023-02-19T07:18:13.834Z,5.13
2023-02-19T07:20:40.319Z,5.63
2023-02-19T07:23:06.856Z,6.05
2023-02-19T07:25:33.435Z,5.60
2023-02-19T07:28:00.024Z,5.60
2023-02-19T07:30:26.539Z,5.82
2023-02-19T07:32:53.020Z,5.68
2023-02-19T07:35:19.526Z,5.68
2023-02-19T07:37:46.003Z,5.95
2023-02-19T07:40:12.646Z,5.97
2023-02-19T07:42:39.481Z,5.82
2023-02-19T07:45:06.496Z,6.00
2023-02-19T07:47:32.981Z,6.63
2023-02-19T07:49:59.579Z,5.75
2023-02-19T07:52:26.119Z,5.75
2023-02-19T07:54:52.599Z,5.75
2023-02-19T07:57:19.427Z,5.70
2023-02-19T07:59:46.120Z,5.57
2023-02-19T08:02:35.615Z,5.63
2023-02-19T08:05:02.682Z,5.43
2023-02-19T08:07:37.159Z,5.65
2023-02-19T08:10:23.207Z,5.43
2023-02-19T08:13:18.600Z,5.10
2023-02-19T08:15:52.616Z,6.03
2023-02-19T08:20:50.284Z,5.15
2023-02-19T08:23:17.472Z,5.25
2023-02-19T08:25:44.318Z,5.05
2023-02-19T08:28:11.960Z,4.45
2023-02-19T08:30:40.483Z,4.30
2023-02-19T08:33:08.109Z,3.88
2023-02-19T08:35:36.563Z,4.22
2023-02-19T08:38:05.344Z,3.80
2023-02-19T08:40:33.051Z,3.92
2023-02-19T08:43:08.664Z,4.65
2023-02-19T08:45:37.617Z,3.97
2023-02-19T08:48:04.790Z,4.18
2023-02-19T08:50:31.483Z,4.22
2023-02-19T08:53:01.211Z,4.30
2023-02-19T08:55:27.948Z,3.97
2023-02-19T08:57:54.762Z,4.57
2023-02-19T09:00:21.564Z,4.47
2023-02-19T09:02:48.514Z,4.13
2023-02-19T09:05:15.346Z,4.50
2023-02-19T09:07:42.223Z,4.32
2023-02-19T09:10:11.141Z,3.97
2023-02-19T09:12:38.305Z,4.25
2023-02-19T09:15:05.938Z,4.20
2023-02-19T09:17:32.388Z,4.20
2023-02-19T09:19:58.865Z,4.63
2023-02-19T09:22:25.478Z,4.85
2023-02-19T09:24:51.971Z,5.93
2023-02-19T09:27:19.700Z,4.85
2023-02-19T09:29:46.679Z,5.38
2023-02-19T09:32:14.022Z,4.93
2023-02-19T09:34:40.672Z,6.32
2023-02-19T09:37:07.934Z,4.97
2023-02-19T09:39:35.701Z,5.55
2023-02-19T09:42:15.323Z,4.90
2023-02-19T09:44:44.641Z,5.38
2023-02-19T09:47:23.539Z,5.38
2023-02-19T09:49:54.365Z,5.18
2023-02-19T09:52:34.024Z,5.68
2023-02-19T09:55:13.989Z,5.72
2023-02-19T09:57:40.848Z,6.13
2023-02-19T10:00:22.228Z,7.20
2023-02-19T10:02:55.149Z,7.60
2023-02-19T10:05:23.283Z,8.07
2023-02-19T10:07:53.007Z,8.35
2023-02-19T10:10:25.652Z,9.13
2023-02-19T10:12:55.933Z,9.25
2023-02-19T10:15:28.838Z,8.98
2023-02-19T10:17:55.578Z,10.43
2023-02-19T10:20:26.579Z,10.43
2023-02-19T10:23:03.206Z,10.25
2023-02-19T10:25:31.031Z,9.25
2023-02-19T10:28:01.633Z,9.93
2023-02-19T10:30:35.880Z,9.25
2023-02-19T10:33:14.293Z,8.80
2023-02-19T10:36:00.394Z,8.05
2023-02-19T10:38:31.303Z,7.93
2023-02-19T10:41:06.176Z,8.35
2023-02-19T10:43:39.937Z,8.40
2023-02-19T10:46:15.426Z,8.02
2023-02-19T10:48:47.139Z,9.05
2023-02-19T10:51:21.624Z,7.82
2023-02-19T10:53:50.565Z,7.85
2023-02-19T10:56:24.770Z,7.07
2023-02-19T10:58:51.894Z,6.75
2023-02-19T11:01:19.848Z,7.65
2023-02-19T11:03:48.673Z,6.40
2023-02-19T11:06:17.465Z,6.55
2023-02-19T11:08:58.197Z,6.40
2023-02-19T11:11:33.193Z,6.07
2023-02-19T11:14:05.076Z,5.72
2023-02-19T11:16:44.041Z,4.70
2023-02-19T11:19:39.772Z,4.40
2023-02-19T11:22:32.263Z,3.80
2023-02-19T11:25:06.330Z,3.30
2023-02-19T11:27:33.961Z,3.58
2023-02-19T11:30:33.977Z,3.30
2023-02-19T11:33:19.661Z,3.00
2023-02-19T11:35:47.430Z,3.80
2023-02-19T11:38:16.321Z,3.33
2023-02-19T11:41:00.976Z,3.10
2023-02-19T11:43:42.427Z,3.10
2023-02-19T11:46:30.344Z,3.40
2023-02-19T11:49:17.700Z,3.63
2023-02-19T11:51:47.630Z,4.05
2023-02-19T11:54:44.084Z,3.88
2023-02-19T11:57:34.916Z,4.03
2023-02-19T12:00:29.573Z,4.28
2023-02-19T12:03:24.313Z,4.05
2023-02-19T12:06:23.737Z,4.43
2023-02-19T12:09:12.088Z,5.60
2023-02-19T12:12:00.378Z,4.60
2023-02-19T12:14:56.477Z,4.05
2023-02-19T12:17:33.413Z,3.75
2023-02-19T12:20:37.969Z,3.53
2023-02-19T12:23:42.075Z,3.47
2023-02-19T12:26:36.389Z,3.88
2023-02-19T12:29:22.697Z,3.08
2023-02-19T12:32:15.775Z,2.65
2023-02-19T12:34:42.201Z,2.15
2023-02-19T12:37:14.727Z,2.30
2023-02-19T12:40:27.909Z,2.45
2023-02-19T12:43:03.382Z,2.22
2023-02-19T12:45:44.720Z,2.20
2023-02-19T12:48:25.306Z,2.45
2023-02-19T12:50:56.895Z,2.75
2023-02-19T12:53:32.696Z,3.20
2023-02-19T12:56:01.283Z,3.50
2023-02-19T12:58:38.844Z,3.00
2023-02-19T13:01:07.469Z,3.33
2023-02-19T13:03:45.961Z,2.85
2023-02-19T13:06:35.031Z,3.38
2023-02-19T13:09:19.735Z,4.00
2023-02-19T13:11:54.231Z,3.60
2023-02-19T13:14:30.689Z,4.07
2023-02-19T13:17:19.414Z,3.72
2023-02-19T13:19:48.284Z,3.03
2023-02-19T13:22:58.146Z,2.70
2023-02-19T13:25:40.038Z,3.28
2023-02-19T13:28:38.446Z,2.80
2023-02-19T13:31:16.594Z,3.05
2023-02-19T13:33:54.318Z,2.63
2023-02-19T13:36:29.008Z,3.22
2023-02-19T13:38:59.841Z,3.53
2023-02-19T13:41:38.218Z,2.78
2023-02-19T13:44:08.270Z,3.20
2023-02-19T13:46:41.834Z,2.83
2023-02-19T13:49:33.860Z,3.42
2023-02-19T13:52:02.261Z,2.78
2023-02-19T13:54:35.906Z,2.72
2023-02-19T13:57:26.611Z,2.50
2023-02-19T13:59:54.920Z,2.80
2023-02-19T14:02:21.423Z,2.67
2023-02-19T14:04:51.692Z,2.30
2023-02-19T14:07:18.224Z,2.63
2023-02-19T14:09:45.826Z,2.42
2023-02-19T14:12:16.276Z,2.45
2023-02-19T14:14:56.513Z,2.60
2023-02-19T14:17:39.961Z,2.63
2023-02-19T14:20:09.153Z,2.53
2023-02-19T14:22:44.757Z,2.42
2023-02-19T14:25:23.303Z,2.58
2023-02-19T14:27:51.710Z,3.05
2023-02-19T14:30:18.843Z,3.17
2023-02-19T14:32:51.078Z,3.15
2023-02-19T14:35:23.188Z,3.65
2023-02-19T14:37:51.581Z,2.80
2023-02-19T14:40:22.863Z,2.75
2023-02-19T14:42:53.186Z,3.05
2023-02-19T14:45:21.103Z,3.67
2023-02-19T14:47:48.591Z,3.42
2023-02-19T14:50:28.127Z,3.60
2023-02-19T14:52:58.431Z,2.85
2023-02-19T14:55:33.906Z,2.83
2023-02-19T14:58:06.140Z,3.13
2023-02-19T15:00:38.224Z,3.35
2023-02-19T15:03:05.362Z,3.00
2023-02-19T15:05:34.845Z,3.22
2023-02-19T15:08:07.352Z,3.60
2023-02-19T15:10:36.138Z,2.63
2023-02-19T15:13:05.994Z,3.20
2023-02-19T15:15:43.062Z,2.90
2023-02-19T15:18:18.260Z,3.20
2023-02-19T15:20:45.078Z,2.97
2023-02-19T15:23:24.498Z,3.95
2023-02-19T15:25:51.990Z,2.28
2023-02-19T15:28:21.696Z,2.50
2023-02-19T15:30:48.171Z,2.83
2023-02-19T15:33:19.697Z,3.38
2023-02-19T15:35:50.949Z,2.92
2023-02-19T15:38:17.961Z,2.75
2023-02-19T15:40:46.070Z,3.10
2023-02-19T15:43:21.207Z,3.28
2023-02-19T15:45:48.544Z,3.50
2023-02-19T15:48:28.851Z,3.05
2023-02-19T15:51:07.876Z,2.95
2023-02-19T15:53:40.533Z,3.63
2023-02-19T15:56:27.900Z,4.35
2023-02-19T15:59:03.753Z,3.05
2023-02-19T16:01:34.239Z,3.38
2023-02-19T16:04:01.135Z,3.33
2023-02-19T16:06:30.804Z,3.30
2023-02-19T16:09:03.477Z,3.65
2023-02-19T16:11:38.616Z,3.42
2023-02-19T16:14:23.424Z,3.15
2023-02-19T16:16:54.888Z,3.85
2023-02-19T16:19:24.015Z,3.40
2023-02-19T16:21:52.104Z,4.18
2023-02-19T16:24:26.837Z,4.57
2023-02-19T16:26:54.400Z,4.63
2023-02-19T16:29:27.812Z,4.80
2023-02-19T16:32:00.552Z,4.53
2023-02-19T16:34:47.734Z,5.10
2023-02-19T16:37:32.875Z,5.25
2023-02-19T16:40:08.617Z,5.05
2023-02-19T16:42:36.883Z,3.67
2023-02-19T16:45:03.724Z,4.00
2023-02-19T16:47:32.827Z,2.80
2023-02-19T16:50:01.881Z,8.27
2023-02-19T16:52:29.203Z,5.10
2023-02-19T16:54:56.023Z,2.85
2023-02-19T16:57:22.591Z,3.00
2023-02-19T16:59:49.232Z,3.80
2023-02-19T17:02:20.070Z,6.28
2023-02-19T17:04:48.574Z,3.50
2023-02-19T17:07:16.839Z,3.70
2023-02-19T17:09:43.396Z,3.20
2023-02-19T17:12:12.107Z,2.90
2023-02-19T17:14:38.688Z,4.18
2023-02-19T17:17:06.243Z,4.07
2023-02-19T17:19:32.832Z,3.60
2023-02-19T17:21:59.357Z,4.90
2023-02-19T17:24:25.842Z,3.95
2023-02-19T17:26:52.343Z,3.85
2023-02-19T17:29:19.837Z,4.05
2023-02-19T17:31:46.415Z,4.15
2023-02-19T17:34:12.998Z,3.97
2023-02-19T17:36:40.452Z,3.88
2023-02-19T17:39:07.184Z,3.83
2023-02-19T17:41:33.757Z,5.45
2023-02-19T17:44:00.240Z,7.07
2023-02-19T17:46:27.269Z,5.88
2023-02-19T17:48:54.602Z,4.75
2023-02-19T17:51:21.704Z,4.25
2023-02-19T17:53:48.237Z,4.03
2023-02-19T17:56:20.413Z,3.70
2023-02-19T17:58:47.578Z,3.80
2023-02-19T18:01:14.784Z,3.50
2023-02-19T18:03:41.782Z,4.32
2023-02-19T18:06:08.795Z,4.32
2023-02-19T18:08:35.826Z,4.05
2023-02-19T18:11:02.976Z,3.30
2023-02-19T18:13:29.511Z,3.90
2023-02-19T18:15:56.003Z,3.50
2023-02-19T18:18:23.304Z,3.83
2023-02-19T18:20:50.034Z,3.55
2023-02-19T18:23:16.604Z,4.28
2023-02-19T18:25:43.421Z,3.92
2023-02-19T18:28:09.941Z,3.65
2023-02-19T18:30:36.508Z,3.40
2023-02-19T18:33:02.976Z,4.70
2023-02-19T18:35:29.492Z,3.60
2023-02-19T18:37:57.200Z,4.10
2023-02-19T18:40:27.241Z,3.42
2023-02-19T18:42:54.085Z,3.03
2023-02-19T18:45:20.651Z,3.30
2023-02-19T18:47:48.374Z,3.28
2023-02-19T18:50:16.457Z,3.33
2023-02-19T18:52:42.981Z,3.72
2023-02-19T18:55:11.173Z,3.35
2023-02-19T18:57:37.805Z,3.88
2023-02-19T19:00:06.611Z,4.78
2023-02-19T19:02:47.056Z,5.80
2023-02-19T19:05:17.321Z,4.50
2023-02-19T19:07:43.873Z,5.82
2023-02-19T19:10:10.510Z,4.03
2023-02-19T19:12:37.008Z,4.40
2023-02-19T19:15:03.860Z,4.63
2023-02-19T19:17:30.438Z,3.78
2023-02-19T19:19:56.938Z,4.55
2023-02-19T19:22:25.044Z,4.03
2023-02-19T19:24:51.577Z,4.68
2023-02-19T19:27:20.268Z,3.88
2023-02-19T19:29:47.877Z,3.92
2023-02-19T19:32:14.556Z,3.65
2023-02-19T19:34:42.731Z,3.92
2023-02-19T19:37:09.998Z,3.65
2023-02-19T19:39:37.110Z,3.58
2023-02-19T19:42:04.428Z,3.90
2023-02-19T19:44:30.884Z,3.85
2023-02-19T19:46:57.451Z,3.85
2023-02-19T19:49:24.249Z,3.60
2023-02-19T19:51:50.799Z,3.95
2023-02-19T19:54:17.278Z,3.63
2023-02-19T19:56:46.556Z,3.45
2023-02-19T19:59:15.767Z,3.67
2023-02-19T20:01:53.134Z,4.03
2023-02-19T20:04:22.831Z,3.08
2023-02-19T20:06:49.572Z,3.65
2023-02-19T20:09:17.321Z,3.63
2023-02-19T20:11:49.642Z,4.82
2023-02-19T20:14:18.217Z,3.92
2023-02-19T20:16:47.430Z,3.33
2023-02-19T20:19:14.873Z,3.70
2023-02-19T20:21:49.396Z,3.50
2023-02-19T20:24:17.277Z,3.55
2023-02-19T20:26:44.231Z,3.60
2023-02-19T20:29:11.272Z,3.75
2023-02-19T20:31:39.268Z,3.50
2023-02-19T20:34:06.029Z,4.38
2023-02-19T20:36:32.835Z,3.72
2023-02-19T20:38:59.369Z,3.55
2023-02-19T20:41:26.231Z,3.67
2023-02-19T20:43:52.755Z,3.40
2023-02-19T20:46:19.293Z,3.97
2023-02-19T20:48:46.051Z,4.15
2023-02-19T20:51:12.596Z,4.18
2023-02-19T20:53:40.662Z,4.68
2023-02-19T20:56:07.348Z,4.68
2023-02-19T20:58:33.912Z,5.18
2023-02-19T21:01:00.441Z,4.93
2023-02-19T21:03:26.928Z,3.88
2023-02-19T21:05:53.397Z,3.72
2023-02-19T21:08:19.864Z,4.32
2023-02-19T21:10:46.706Z,4.63
2023-02-19T21:13:13.812Z,4.75
2023-02-19T21:15:40.366Z,4.07
2023-02-19T21:18:07.037Z,4.05
2023-02-19T21:20:33.635Z,4.75
2023-02-19T21:23:00.766Z,5.45
2023-02-19T21:25:27.638Z,3.45
2023-02-19T21:27:54.132Z,3.72
2023-02-19T21:30:20.772Z,4.10
2023-02-19T21:32:47.301Z,2.92
2023-02-19T21:35:13.784Z,3.58
2023-02-19T21:37:44.346Z,3.95
2023-02-19T21:40:12.269Z,3.40
2023-02-19T21:42:38.968Z,3.63
2023-02-19T21:45:06.035Z,4.13
2023-02-19T21:47:32.566Z,4.38
2023-02-19T21:49:59.079Z,4.70
2023-02-19T21:52:26.960Z,4.55
2023-02-19T21:54:53.447Z,3.75
2023-02-19T21:57:19.963Z,4.93
2023-02-19T21:59:46.442Z,3.63
2023-02-19T22:02:13.274Z,3.60
2023-02-19T22:04:43.060Z,3.00
2023-02-19T22:07:09.644Z,3.72
2023-02-19T22:09:36.135Z,3.20
2023-02-19T22:12:02.684Z,3.75
2023-02-19T22:14:29.189Z,3.38
2023-02-19T22:16:55.747Z,3.40
2023-02-19T22:19:22.377Z,3.17
2023-02-19T22:21:48.974Z,3.53
2023-02-19T22:24:21.371Z,3.17
2023-02-19T22:26:50.640Z,3.70
2023-02-19T22:29:17.662Z,3.63
2023-02-19T22:31:44.275Z,3.15
2023-02-19T22:34:11.014Z,3.65
2023-02-19T22:36:37.700Z,3.60
2023-02-19T22:39:06.243Z,3.15
2023-02-19T22:41:34.087Z,2.78
2023-02-19T22:44:00.722Z,3.10
2023-02-19T22:46:30.081Z,3.35
2023-02-19T22:48:57.472Z,3.22
2023-02-19T22:51:24.696Z,3.60
2023-02-19T22:53:53.910Z,3.20
2023-02-19T22:56:22.603Z,3.58
2023-02-19T22:58:49.415Z,3.53
2023-02-19T23:01:16.060Z,4.03
2023-02-19T23:03:50.507Z,4.20
2023-02-19T23:06:21.043Z,3.42
2023-02-19T23:08:47.622Z,3.63
2023-02-19T23:11:22.019Z,3.33
2023-02-19T23:13:48.581Z,3.42
2023-02-19T23:16:15.728Z,3.33
2023-02-19T23:18:42.281Z,3.42
2023-02-19T23:21:08.858Z,4.10
2023-02-19T23:23:35.367Z,3.92
2023-02-19T23:26:03.442Z,4.00
2023-02-19T23:28:30.134Z,3.80
2023-02-19T23:30:56.961Z,3.88
2023-02-19T23:33:23.475Z,3.17
2023-02-19T23:35:50.016Z,3.67
2023-02-19T23:38:16.626Z,4.07
2023-02-19T23:40:43.190Z,3.55
2023-02-19T23:43:09.644Z,3.20
2023-02-19T23:45:36.164Z,3.70
2023-02-19T23:48:03.575Z,3.70
2023-02-19T23:50:30.153Z,3.72
2023-02-19T23:52:59.147Z,3.40
2023-02-19T23:55:26.372Z,3.40
2023-02-19T23:57:53.535Z,3.10
